createdAt,value
2023-03-17T00:00:04.283Z,0.37
2023-03-17T00:03:53.012Z,0.40
2023-03-17T00:07:19.201Z,0.42
2023-03-17T00:10:44.988Z,0.41
2023-03-17T00:14:12.017Z,0.43
2023-03-17T00:17:38.123Z,0.45
2023-03-17T00:21:02.751Z,0.48
2023-03-17T00:24:28.649Z,0.48
2023-03-17T00:27:58.394Z,0.49
2023-03-17T00:31:23.885Z,0.48
2023-03-17T00:34:49.638Z,0.47
2023-03-17T00:38:17.760Z,0.47
2023-03-17T00:41:43.788Z,0.49
2023-03-17T00:45:10.234Z,0.49
2023-03-17T00:48:35.910Z,0.48
2023-03-17T00:52:01.604Z,0.46
2023-03-17T00:55:27.590Z,0.43
2023-03-17T00:58:53.556Z,0.38
2023-03-17T01:02:19.609Z,0.36
2023-03-17T01:05:38.718Z,0.34
2023-03-17T01:09:05.055Z,0.33
2023-03-17T01:12:30.767Z,0.30
2023-03-17T01:15:57.207Z,0.28
2023-03-17T01:19:23.120Z,0.26
2023-03-17T01:22:42.095Z,0.26
2023-03-17T01:26:09.709Z,0.28
2023-03-17T01:29:37.729Z,0.32
2023-03-17T01:33:03.669Z,0.34
2023-03-17T01:36:29.506Z,0.36
2023-03-17T01:39:55.544Z,0.38
2023-03-17T01:43:23.069Z,0.44
2023-03-17T01:46:41.103Z,0.48
2023-03-17T01:50:10.007Z,0.50
2023-03-17T01:53:37.000Z,0.49
2023-03-17T01:57:04.551Z,0.47
2023-03-17T02:00:31.050Z,0.44
2023-03-17T02:03:50.808Z,0.42
2023-03-17T02:07:16.591Z,0.42
2023-03-17T02:10:36.171Z,0.41
2023-03-17T02:14:02.068Z,0.40
2023-03-17T02:17:29.313Z,0.38
2023-03-17T02:21:14.372Z,0.36
2023-03-17T02:24:35.881Z,0.38
2023-03-17T02:28:02.786Z,0.39
2023-03-17T02:31:29.297Z,0.42
2023-03-17T02:34:54.869Z,0.43
2023-03-17T02:38:20.845Z,0.44
2023-03-17T02:41:46.673Z,0.47
2023-03-17T02:45:13.331Z,0.49
2023-03-17T02:48:32.057Z,0.51
2023-03-17T02:52:02.891Z,0.52
2023-03-17T02:55:29.582Z,0.53
2023-03-17T02:58:55.939Z,0.55
2023-03-17T03:02:21.946Z,0.54
2023-03-17T03:05:48.030Z,0.49
2023-03-17T03:09:14.501Z,0.41
2023-03-17T03:12:44.029Z,0.33
2023-03-17T03:16:10.555Z,0.27
2023-03-17T03:19:35.065Z,0.20
2023-03-17T03:23:00.841Z,0.12
2023-03-17T03:26:26.387Z,0.04
2023-03-17T03:29:43.361Z,-0.03
2023-03-17T03:33:09.499Z,-0.06
2023-03-17T03:36:35.404Z,-0.10
2023-03-17T03:40:01.024Z,-0.13
2023-03-17T03:43:27.153Z,-0.16
2023-03-17T03:46:53.073Z,-0.17
2023-03-17T03:50:18.815Z,-0.14
2023-03-17T03:53:44.652Z,-0.10
2023-03-17T03:57:10.778Z,-0.05
2023-03-17T04:00:29.587Z,-0.03
2023-03-17T04:03:55.464Z,-0.04
2023-03-17T04:07:21.583Z,-0.02
2023-03-17T04:10:47.631Z,0.00
2023-03-17T04:14:14.239Z,0.01
2023-03-17T04:17:40.219Z,-0.01
2023-03-17T04:21:07.157Z,-0.05
2023-03-17T04:24:33.030Z,-0.09
2023-03-17T04:27:58.967Z,-0.12
2023-03-17T04:31:25.898Z,-0.16
2023-03-17T04:35:12.250Z,-0.18
2023-03-17T04:38:37.923Z,-0.22
2023-03-17T04:42:03.832Z,-0.25
2023-03-17T04:45:29.705Z,-0.28
2023-03-17T04:48:57.085Z,-0.29
2023-03-17T04:52:22.773Z,-0.29
2023-03-17T04:55:48.634Z,-0.26
2023-03-17T04:59:14.566Z,-0.21
2023-03-17T05:02:41.358Z,-0.12
2023-03-17T05:06:07.320Z,-0.05
2023-03-17T05:09:33.021Z,0.02
2023-03-17T05:12:58.625Z,0.08
2023-03-17T05:16:24.648Z,0.12
2023-03-17T05:19:43.272Z,0.16
2023-03-17T05:23:09.389Z,0.18
2023-03-17T05:26:59.526Z,0.22
2023-03-17T05:30:25.379Z,0.26
2023-03-17T05:33:51.270Z,0.27
2023-03-17T05:37:18.663Z,0.27
2023-03-17T05:40:44.083Z,0.28
2023-03-17T05:44:10.448Z,0.30
2023-03-17T05:47:28.722Z,0.38
2023-03-17T05:50:57.306Z,0.45
2023-03-17T05:54:24.243Z,0.52
2023-03-17T05:57:49.966Z,0.59
2023-03-17T06:01:15.768Z,0.68
2023-03-17T06:04:34.122Z,0.80
2023-03-17T06:07:59.675Z,0.88
2023-03-17T06:11:25.432Z,0.94
2023-03-17T06:14:51.387Z,1.06
2023-03-17T06:18:17.116Z,1.20
2023-03-17T06:21:42.929Z,1.29
2023-03-17T06:25:10.220Z,1.41
2023-03-17T06:28:35.982Z,1.54
2023-03-17T06:32:18.968Z,1.65
2023-03-17T06:35:46.073Z,1.81
2023-03-17T06:39:11.872Z,2.00
2023-03-17T06:42:37.521Z,2.20
2023-03-17T06:46:03.436Z,2.38
2023-03-17T06:49:29.203Z,2.54
2023-03-17T06:52:55.012Z,2.69
2023-03-17T06:56:31.472Z,2.83
2023-03-17T07:00:44.562Z,3.03
2023-03-17T07:03:43.832Z,3.23
2023-03-17T07:07:12.160Z,3.43
2023-03-17T07:10:37.938Z,3.61
2023-03-17T07:14:52.755Z,3.81
2023-03-17T07:17:52.400Z,4.01
2023-03-17T07:21:18.556Z,4.15
2023-03-17T07:24:46.989Z,4.29
2023-03-17T07:28:33.247Z,4.46
2023-03-17T07:31:59.077Z,4.66
2023-03-17T07:35:25.110Z,4.95
2023-03-17T07:38:50.802Z,5.23
2023-03-17T07:42:17.508Z,5.40
2023-03-17T07:45:43.529Z,5.54
2023-03-17T07:49:10.490Z,5.68
2023-03-17T07:52:36.584Z,5.85
2023-03-17T07:56:02.829Z,5.98
2023-03-17T07:59:29.000Z,6.14
2023-03-17T08:03:08.781Z,6.27
2023-03-17T08:06:57.249Z,6.40
2023-03-17T08:10:23.149Z,6.49
2023-03-17T08:13:49.932Z,6.58
2023-03-17T08:17:16.058Z,6.71
2023-03-17T08:20:42.217Z,6.88
2023-03-17T08:24:08.421Z,7.09
2023-03-17T08:27:34.223Z,7.23
2023-03-17T08:31:11.067Z,7.43
2023-03-17T08:34:38.040Z,7.61
2023-03-17T08:38:03.792Z,7.74
2023-03-17T08:41:34.939Z,7.89
2023-03-17T08:45:00.686Z,7.96
2023-03-17T08:48:26.511Z,7.96
2023-03-17T08:51:52.275Z,8.06
2023-03-17T08:55:18.805Z,8.22
2023-03-17T08:58:45.872Z,8.28
2023-03-17T09:02:12.904Z,8.31
2023-03-17T09:05:38.784Z,8.32
2023-03-17T09:09:04.684Z,8.39
2023-03-17T09:12:32.177Z,8.42
2023-03-17T09:16:00.201Z,8.45
2023-03-17T09:19:26.144Z,8.57
2023-03-17T09:22:52.064Z,8.69
2023-03-17T09:26:19.436Z,8.85
2023-03-17T09:29:45.400Z,8.89
2023-03-17T09:33:20.052Z,9.02
2023-03-17T09:36:45.978Z,9.09
2023-03-17T09:40:15.132Z,9.02
2023-03-17T09:43:45.924Z,8.97
2023-03-17T09:47:17.288Z,8.87
2023-03-17T09:50:46.839Z,8.74
2023-03-17T09:54:18.726Z,8.70
2023-03-17T09:57:44.276Z,8.78
2023-03-17T10:01:12.899Z,9.02
2023-03-17T10:04:39.166Z,9.14
2023-03-17T10:08:22.825Z,9.26
2023-03-17T10:12:00.937Z,9.49
2023-03-17T10:15:28.394Z,9.68
2023-03-17T10:18:56.634Z,9.80
2023-03-17T10:22:23.812Z,9.93
2023-03-17T10:25:49.540Z,10.05
2023-03-17T10:29:17.609Z,10.13
2023-03-17T10:32:44.164Z,10.22
2023-03-17T10:36:12.555Z,10.33
2023-03-17T10:39:45.822Z,10.42
2023-03-17T10:43:17.193Z,10.48
2023-03-17T10:46:53.442Z,10.63
2023-03-17T10:50:23.370Z,10.75
2023-03-17T10:54:40.910Z,10.81
2023-03-17T10:57:40.974Z,10.92
2023-03-17T11:01:09.407Z,11.07
2023-03-17T11:04:36.815Z,11.30
2023-03-17T11:08:10.489Z,11.44
2023-03-17T11:11:44.566Z,11.35
2023-03-17T11:15:11.655Z,11.24
2023-03-17T11:18:38.296Z,11.18
2023-03-17T11:22:06.352Z,11.16
2023-03-17T11:25:33.375Z,11.24
2023-03-17T11:29:12.065Z,11.15
2023-03-17T11:32:40.320Z,11.11
2023-03-17T11:36:20.925Z,11.21
2023-03-17T11:39:52.794Z,11.35
2023-03-17T11:43:27.117Z,11.40
2023-03-17T11:46:56.375Z,11.46
2023-03-17T11:50:26.687Z,11.59
2023-03-17T11:54:00.927Z,11.62
2023-03-17T11:57:29.523Z,11.74
2023-03-17T12:00:57.165Z,11.93
2023-03-17T12:04:25.913Z,12.10
2023-03-17T12:07:54.936Z,12.18
2023-03-17T12:11:23.229Z,12.07
2023-03-17T12:14:52.518Z,11.88
2023-03-17T12:18:20.222Z,11.86
2023-03-17T12:21:50.351Z,11.98
2023-03-17T12:25:19.962Z,12.13
2023-03-17T12:28:49.598Z,12.17
2023-03-17T12:32:19.837Z,12.04
2023-03-17T12:35:45.569Z,11.98
2023-03-17T12:39:14.571Z,12.01
2023-03-17T12:42:43.532Z,12.00
2023-03-17T12:46:19.237Z,12.01
2023-03-17T12:49:54.853Z,12.09
2023-03-17T12:53:36.595Z,12.10
2023-03-17T12:57:03.952Z,12.16
2023-03-17T13:00:31.002Z,12.40
2023-03-17T13:04:02.744Z,12.70
2023-03-17T13:07:32.531Z,12.96
2023-03-17T13:11:12.682Z,13.18
2023-03-17T13:14:43.407Z,13.46
2023-03-17T13:18:26.321Z,13.80
2023-03-17T13:22:15.599Z,13.92
2023-03-17T13:25:53.609Z,13.81
2023-03-17T13:29:26.549Z,13.72
2023-03-17T13:32:59.646Z,13.66
2023-03-17T13:36:31.612Z,13.55
2023-03-17T13:40:11.070Z,13.43
2023-03-17T13:43:47.176Z,13.39
2023-03-17T13:47:32.663Z,13.41
2023-03-17T13:51:03.232Z,13.54
2023-03-17T13:54:33.726Z,13.53
2023-03-17T13:58:17.682Z,13.41
2023-03-17T14:01:48.036Z,13.33
2023-03-17T14:05:07.809Z,13.33
2023-03-17T14:08:34.842Z,13.36
2023-03-17T14:12:03.247Z,13.33
2023-03-17T14:15:32.314Z,13.36
2023-03-17T14:19:00.177Z,13.37
2023-03-17T14:22:26.763Z,13.33
2023-03-17T14:25:52.736Z,13.18
2023-03-17T14:29:20.559Z,13.07
2023-03-17T14:32:49.745Z,12.96
2023-03-17T14:36:15.605Z,12.97
2023-03-17T14:39:46.801Z,12.98
2023-03-17T14:43:12.687Z,12.96
2023-03-17T14:46:40.402Z,12.84
2023-03-17T14:50:07.682Z,12.73
2023-03-17T14:53:54.878Z,12.63
2023-03-17T14:57:22.939Z,12.56
2023-03-17T15:00:53.419Z,12.46
2023-03-17T15:04:22.589Z,12.33
2023-03-17T15:07:48.404Z,12.25
2023-03-17T15:11:22.684Z,12.24
2023-03-17T15:14:50.633Z,12.16
2023-03-17T15:18:16.901Z,12.11
2023-03-17T15:21:43.453Z,12.10
2023-03-17T15:25:20.535Z,11.99
2023-03-17T15:28:39.281Z,11.87
2023-03-17T15:32:01.369Z,11.75
2023-03-17T15:35:27.428Z,11.62
2023-03-17T15:38:55.488Z,11.52
2023-03-17T15:42:22.359Z,11.46
2023-03-17T15:45:56.555Z,11.35
2023-03-17T15:49:25.255Z,11.21
2023-03-17T15:52:53.822Z,11.07
2023-03-17T15:56:21.257Z,10.95
2023-03-17T15:59:47.021Z,10.80
2023-03-17T16:03:17.900Z,10.65
2023-03-17T16:06:43.702Z,10.49
2023-03-17T16:10:16.644Z,10.36
2023-03-17T16:13:42.529Z,10.22
2023-03-17T16:17:17.582Z,10.10
2023-03-17T16:20:45.025Z,9.97
2023-03-17T16:24:17.150Z,9.86
2023-03-17T16:27:45.378Z,9.75
2023-03-17T16:31:21.836Z,9.63
2023-03-17T16:34:47.948Z,9.52
2023-03-17T16:38:15.569Z,9.41
2023-03-17T16:41:41.471Z,9.28
2023-03-17T16:44:58.244Z,9.17
2023-03-17T16:48:24.368Z,9.05
2023-03-17T16:51:50.700Z,8.94
2023-03-17T16:55:17.452Z,8.84
2023-03-17T16:58:43.362Z,8.75
2023-03-17T17:02:15.928Z,8.64
2023-03-17T17:05:34.072Z,8.51
2023-03-17T17:09:00.051Z,8.39
2023-03-17T17:12:54.990Z,8.26
2023-03-17T17:16:23.460Z,8.14
2023-03-17T17:20:13.491Z,8.02
2023-03-17T17:23:39.195Z,7.91
2023-03-17T17:27:05.386Z,7.82
2023-03-17T17:30:31.975Z,7.73
2023-03-17T17:33:58.324Z,7.64
2023-03-17T17:37:24.458Z,7.54
2023-03-17T17:40:50.849Z,7.44
2023-03-17T17:44:16.781Z,7.38
2023-03-17T17:47:42.906Z,7.34
2023-03-17T17:51:07.372Z,7.30
2023-03-17T17:54:25.613Z,7.25
2023-03-17T17:57:52.647Z,7.22
2023-03-17T18:01:22.037Z,7.18
2023-03-17T18:04:47.815Z,7.14
2023-03-17T18:08:15.315Z,7.08
2023-03-17T18:11:42.126Z,7.05
2023-03-17T18:15:08.829Z,7.04
2023-03-17T18:18:34.664Z,7.00
2023-03-17T18:22:00.763Z,6.94
2023-03-17T18:25:27.328Z,6.87
2023-03-17T18:28:53.856Z,6.80
2023-03-17T18:32:19.670Z,6.75
2023-03-17T18:35:48.887Z,6.68
2023-03-17T18:39:14.989Z,6.61
2023-03-17T18:42:41.230Z,6.55
2023-03-17T18:46:17.648Z,6.51
2023-03-17T18:49:45.445Z,6.47
2023-03-17T18:53:13.467Z,6.44
2023-03-17T18:56:39.220Z,6.41
2023-03-17T19:00:05.878Z,6.40
2023-03-17T19:03:32.446Z,6.37
2023-03-17T19:06:58.517Z,6.33
2023-03-17T19:10:24.096Z,6.27
2023-03-17T19:13:49.873Z,6.20
2023-03-17T19:17:15.605Z,6.14
2023-03-17T19:20:41.371Z,6.10
2023-03-17T19:24:09.764Z,6.03
2023-03-17T19:27:37.185Z,5.97
2023-03-17T19:31:03.280Z,5.93
2023-03-17T19:34:29.254Z,5.88
2023-03-17T19:37:55.151Z,5.82
2023-03-17T19:41:21.215Z,5.77
2023-03-17T19:44:47.057Z,5.74
2023-03-17T19:48:12.702Z,5.70
2023-03-17T19:51:38.516Z,5.69
2023-03-17T19:55:06.419Z,5.66
2023-03-17T19:58:34.129Z,5.61
2023-03-17T20:02:00.108Z,5.55
2023-03-17T20:05:26.082Z,5.50
2023-03-17T20:08:52.682Z,5.45
2023-03-17T20:12:18.477Z,5.44
2023-03-17T20:15:44.683Z,5.40
2023-03-17T20:19:10.909Z,5.37
2023-03-17T20:22:37.359Z,5.34
2023-03-17T20:26:03.694Z,5.29
2023-03-17T20:29:29.201Z,5.26
2023-03-17T20:32:55.400Z,5.23
2023-03-17T20:36:22.102Z,5.24
2023-03-17T20:39:47.854Z,5.24
2023-03-17T20:43:14.238Z,5.20
2023-03-17T20:46:40.379Z,5.15
2023-03-17T20:50:10.049Z,5.10
2023-03-17T20:53:36.393Z,5.05
2023-03-17T20:57:02.258Z,5.00
2023-03-17T21:00:32.018Z,4.94
2023-03-17T21:03:57.951Z,4.89
2023-03-17T21:07:23.666Z,4.82
2023-03-17T21:10:49.444Z,4.75
2023-03-17T21:14:15.415Z,4.69
2023-03-17T21:17:42.107Z,4.64
2023-03-17T21:21:08.118Z,4.58
2023-03-17T21:24:34.873Z,4.52
2023-03-17T21:28:01.536Z,4.45
2023-03-17T21:31:27.921Z,4.40
2023-03-17T21:34:54.402Z,4.36
2023-03-17T21:38:20.441Z,4.31
2023-03-17T21:41:46.899Z,4.26
2023-03-17T21:45:13.884Z,4.21
2023-03-17T21:48:39.607Z,4.17
2023-03-17T21:52:05.435Z,4.13
2023-03-17T21:55:31.365Z,4.08
2023-03-17T21:58:58.067Z,4.05
2023-03-17T22:02:25.183Z,4.01
2023-03-17T22:05:53.505Z,3.97
2023-03-17T22:09:21.848Z,3.93
2023-03-17T22:12:48.683Z,3.88
2023-03-17T22:16:15.060Z,3.85
2023-03-17T22:19:42.500Z,3.83
2023-03-17T22:23:08.333Z,3.80
2023-03-17T22:26:34.694Z,3.78
2023-03-17T22:30:00.969Z,3.75
2023-03-17T22:33:26.680Z,3.74
2023-03-17T22:36:52.732Z,3.73
2023-03-17T22:40:19.131Z,3.70
2023-03-17T22:43:46.179Z,3.68
2023-03-17T22:47:12.056Z,3.66
2023-03-17T22:50:37.784Z,3.63
2023-03-17T22:54:03.938Z,3.61
2023-03-17T22:57:29.871Z,3.58
2023-03-17T23:00:58.374Z,3.56
2023-03-17T23:04:25.740Z,3.52
2023-03-17T23:07:51.846Z,3.53
2023-03-17T23:11:19.119Z,3.54
2023-03-17T23:14:44.853Z,3.54
2023-03-17T23:18:11.017Z,3.53
2023-03-17T23:21:49.962Z,3.51
2023-03-17T23:25:15.707Z,3.50
2023-03-17T23:28:41.846Z,3.49
2023-03-17T23:32:00.792Z,3.47
2023-03-17T23:35:26.786Z,3.43
2023-03-17T23:38:53.679Z,3.40
2023-03-17T23:42:19.419Z,3.38
2023-03-17T23:45:45.507Z,3.35
2023-03-17T23:49:12.254Z,3.32
2023-03-17T23:52:30.752Z,3.29
2023-03-17T23:55:56.988Z,3.28
2023-03-17T23:59:42.985Z,3.25
